Time;durP1;ratioP1;P1;durP2;ratioP2;P2;SDS_P1;SDS_P2;PMS_P1;PMS_P2;Temp;Humidity;BMP_temperature;BMP_pressure;BME280_temperature;BME280_humidity;BME280_pressure;Samples;Min_cycle;Max_cycle;Signal;HPM_P1;HPM_P2
2023/01/04 00:00:12;;;;;;;10.08;9.02;;;;;;;6.83;77.49;101112.25;457527;115;923203;-77
2023/01/04 00:01:18;;;;;;;9.75;8.96;;;;;;;6.83;77.41;101109.53;457533;114;922513;-78
2023/01/04 00:02:21;;;;;;;9.99;9.03;;;;;;;6.82;77.38;101117.84;457428;116;922472;-79
2023/01/04 00:03:25;;;;;;;10.01;9.25;;;;;;;6.81;77.35;101119.70;457550;116;922494;-78
2023/01/04 00:04:28;;;;;;;9.37;8.69;;;;;;;6.81;77.37;101118.85;457436;116;924771;-77
2023/01/04 00:05:32;;;;;;;10.48;9.67;;;;;;;6.80;77.37;101118.00;457636;116;922378;-78
2023/01/04 00:06:35;;;;;;;9.94;9.21;;;;;;;6.80;77.37;101117.16;457532;114;922405;-78
2023/01/04 00:07:38;;;;;;;10.64;9.84;;;;;;;6.80;77.35;101117.16;457653;116;922516;-79
2023/01/04 00:08:41;;;;;;;10.13;9.38;;;;;;;6.78;77.31;101114.61;457535;114;922516;-78
2023/01/04 00:09:45;;;;;;;10.11;9.33;;;;;;;6.78;77.23;101117.33;457048;116;922957;-78
2023/01/04 00:10:48;;;;;;;10.01;9.25;;;;;;;6.76;77.26;101113.97;457116;116;930540;-78
2023/01/04 00:11:51;;;;;;;10.58;9.75;;;;;;;6.76;77.31;101115.83;457172;116;922525;-78
2023/01/04 00:12:54;;;;;;;9.91;9.13;;;;;;;6.74;77.32;101116.00;457139;116;922492;-77
2023/01/04 00:13:58;;;;;;;10.48;9.68;;;;;;;6.74;77.33;101107.87;457373;114;923152;-78
2023/01/04 00:15:01;;;;;;;9.92;9.21;;;;;;;6.73;77.30;101108.89;457447;115;922416;-77
2023/01/04 00:16:07;;;;;;;9.71;9.00;;;;;;;6.73;77.28;101099.94;457610;115;922988;-78
2023/01/04 00:17:11;;;;;;;10.66;9.78;;;;;;;6.72;77.34;101106.38;457445;116;929271;-79
2023/01/04 00:18:14;;;;;;;10.39;9.59;;;;;;;6.71;77.23;101102.81;457716;116;922499;-77
2023/01/04 00:19:17;;;;;;;10.45;9.66;;;;;;;6.69;77.36;101111.11;453674;116;922442;-80
2023/01/04 00:20:21;;;;;;;9.79;9.09;;;;;;;6.68;77.33;101104.00;452163;117;922550;-79
2023/01/04 00:21:27;;;;;;;10.16;9.36;;;;;;;6.66;77.28;101108.77;452200;115;922507;-78
2023/01/04 00:22:33;;;;;;;9.61;8.91;;;;;;;6.65;77.37;101104.37;452046;117;922664;-79
2023/01/04 00:23:39;;;;;;;10.09;9.35;;;;;;;6.63;77.30;101103.69;452708;116;922852;-79
2023/01/04 00:24:42;;;;;;;10.99;10.19;;;;;;;6.62;77.33;101104.70;457505;115;922634;-77
2023/01/04 00:25:46;;;;;;;10.36;9.56;;;;;;;6.62;77.45;101098.44;457742;116;922783;-78
2023/01/04 00:26:49;;;;;;;10.55;9.71;;;;;;;6.62;77.38;101098.44;457541;114;923033;-78
2023/01/04 00:27:52;;;;;;;10.31;9.54;;;;;;;6.62;77.50;101107.41;457607;115;922415;-76
2023/01/04 00:28:58;;;;;;;10.24;9.54;;;;;;;6.63;77.42;101108.27;457370;116;922773;-79
2023/01/04 00:30:01;;;;;;;9.48;8.71;;;;;;;6.62;77.41;101099.28;447738;118;923061;-79
2023/01/04 00:31:05;;;;;;;10.56;9.76;;;;;;;6.62;77.40;101101.15;448639;118;922879;-79
2023/01/04 00:32:09;;;;;;;11.68;10.58;;;;;;;6.61;77.54;101097.63;448460;118;922837;-79
2023/01/04 00:33:12;;;;;;;10.79;9.98;;;;;;;6.62;77.46;101104.70;448673;118;922773;-77
2023/01/04 00:34:17;;;;;;;10.50;9.70;;;;;;;6.61;77.44;101103.05;448441;118;922422;-78
2023/01/04 00:35:20;;;;;;;9.98;9.18;;;;;;;6.61;77.50;101104.91;448466;118;922593;-78
2023/01/04 00:36:26;;;;;;;10.54;9.66;;;;;;;6.61;77.54;101104.91;445762;116;922523;-78
2023/01/04 00:37:30;;;;;;;10.49;9.69;;;;;;;6.61;77.44;101107.61;448510;118;922552;-78
2023/01/04 00:38:33;;;;;;;10.59;9.68;;;;;;;6.60;77.54;101109.47;448401;118;922484;-78
2023/01/04 00:39:37;;;;;;;11.10;10.01;;;;;;;6.60;77.54;101105.92;442862;120;922511;-78
2023/01/04 00:40:40;;;;;;;11.05;10.13;;;;;;;6.59;77.48;101104.22;442916;120;922538;-78
2023/01/04 00:41:49;;;;;;;10.82;10.02;;;;;;;6.60;77.57;101104.05;442934;118;922574;-78
2023/01/04 00:42:53;;;;;;;10.90;10.14;;;;;;;6.62;77.47;101109.28;440580;120;922577;-79
2023/01/04 00:43:58;;;;;;;10.49;9.79;;;;;;;6.62;77.53;101101.15;442645;120;922564;-79
2023/01/04 00:45:01;;;;;;;10.57;9.66;;;;;;;6.61;77.45;101103.05;442710;118;922975;-77
2023/01/04 00:46:10;;;;;;;9.49;8.79;;;;;;;6.62;77.49;101098.44;442871;120;922605;-78
2023/01/04 00:47:10;;;;;;;10.21;9.46;;;;;;;6.62;77.49;101107.41;442506;120;923437;-76
2023/01/04 00:48:13;;;;;;;10.17;9.41;;;;;;;6.62;77.50;101110.12;442936;120;922554;-78
2023/01/04 00:49:16;;;;;;;10.16;9.28;;;;;;;6.62;77.55;101104.70;442635;120;922415;-78
2023/01/04 00:50:20;;;;;;;10.17;9.42;;;;;;;6.62;77.43;101103.86;442823;120;922471;-79
2023/01/04 00:51:23;;;;;;;9.59;8.93;;;;;;;6.61;77.50;101103.05;442890;118;930676;-77
2023/01/04 00:52:26;;;;;;;10.64;9.93;;;;;;;6.61;77.50;101100.33;442974;120;922505;-77
2023/01/04 00:53:29;;;;;;;10.03;9.35;;;;;;;6.63;77.51;101105.55;442858;120;922687;-78
2023/01/04 00:54:32;;;;;;;10.44;9.64;;;;;;;6.63;77.50;101097.42;440814;120;923231;-77
2023/01/04 00:55:35;;;;;;;10.04;9.14;;;;;;;6.64;77.43;101093.70;442911;118;922929;-79
2023/01/04 00:56:38;;;;;;;10.03;9.08;;;;;;;6.63;77.39;101092.85;442936;118;923043;-77
2023/01/04 00:57:41;;;;;;;9.86;9.18;;;;;;;6.64;77.47;101096.41;442950;120;922549;-78
2023/01/04 00:58:44;;;;;;;9.83;9.09;;;;;;;6.64;77.38;101093.70;442879;120;922589;-79
2023/01/04 00:59:48;;;;;;;10.93;9.96;;;;;;;6.64;77.38;101096.41;442969;120;922598;-79
2023/01/04 01:00:51;;;;;;;10.94;9.99;;;;;;;6.64;77.37;101096.41;442937;120;923178;-77
2023/01/04 01:01:54;;;;;;;9.16;8.48;;;;;;;6.64;77.34;101088.28;442967;118;922606;-78
2023/01/04 01:02:57;;;;;;;9.63;8.91;;;;;;;6.63;77.28;101095.56;442908;120;922952;-78
2023/01/04 01:04:02;;;;;;;9.99;9.10;;;;;;;6.62;77.28;101087.59;442660;120;922448;-79
2023/01/04 01:05:07;;;;;;;10.02;9.24;;;;;;;6.62;77.31;101093.87;442917;120;930522;-78
2023/01/04 01:06:11;;;;;;;9.54;8.84;;;;;;;6.62;77.35;101093.02;443139;118;922467;-75
2023/01/04 01:07:14;;;;;;;9.34;8.70;;;;;;;6.62;77.41;101096.58;443357;120;930448;-76
2023/01/04 01:08:23;;;;;;;10.07;9.27;;;;;;;6.64;77.30;101093.70;443490;120;922536;-78
2023/01/04 01:09:26;;;;;;;10.88;10.09;;;;;;;6.63;77.29;101092.00;442817;120;922613;-77
2023/01/04 01:10:29;;;;;;;9.90;9.15;;;;;;;6.63;77.38;101105.55;443588;120;922692;-78
2023/01/04 01:11:35;;;;;;;10.33;9.63;;;;;;;6.62;77.25;101093.02;443465;118;922225;-76
2023/01/04 01:12:38;;;;;;;9.73;9.11;;;;;;;6.61;77.25;101096.77;442763;120;922574;-78
2023/01/04 01:13:41;;;;;;;10.13;9.24;;;;;;;6.61;77.35;101097.63;442624;120;922445;-78
2023/01/04 01:14:44;;;;;;;10.47;9.69;;;;;;;6.60;77.30;101101.34;442913;120;922468;-78
2023/01/04 01:15:47;;;;;;;9.14;8.48;;;;;;;6.59;77.39;101096.95;443610;118;922585;-79
2023/01/04 01:16:51;;;;;;;9.30;8.70;;;;;;;6.58;77.35;101100.67;443975;117;922636;-78
2023/01/04 01:17:56;;;;;;;10.49;9.63;;;;;;;6.59;77.48;101101.52;443060;119;930382;-78
2023/01/04 01:18:59;;;;;;;10.81;9.84;;;;;;;6.60;77.46;101105.92;443963;119;922782;-78
2023/01/04 01:20:04;;;;;;;9.86;9.19;;;;;;;6.60;77.37;101112.19;444049;119;922521;-79
2023/01/04 01:21:19;;;;;;;9.21;8.51;;;;;;;6.61;77.35;101110.33;443832;119;922883;-78
2023/01/04 01:22:23;;;;;;;9.72;8.93;;;;;;;6.61;77.38;101108.46;443911;119;922567;-81
2023/01/04 01:23:26;;;;;;;10.46;9.59;;;;;;;6.62;77.41;101109.28;444007;119;922602;-79
2023/01/04 01:24:30;;;;;;;9.38;8.66;;;;;;;6.61;77.32;101113.03;443845;119;922497;-78
2023/01/04 01:25:33;;;;;;;10.48;9.68;;;;;;;6.61;77.33;101110.33;444072;119;922609;-77
2023/01/04 01:26:36;;;;;;;10.03;9.32;;;;;;;6.61;77.32;101115.74;444033;119;922627;-79
2023/01/04 01:27:39;;;;;;;9.29;8.69;;;;;;;6.60;77.38;101114.89;444104;119;922447;-79
2023/01/04 01:28:43;;;;;;;9.04;8.38;;;;;;;6.59;77.39;101107.78;443835;119;923068;-79
2023/01/04 01:29:46;;;;;;;9.84;9.10;;;;;;;6.59;77.31;101107.78;444057;119;922901;-78
2023/01/04 01:30:49;;;;;;;9.75;8.87;;;;;;;6.59;77.34;101106.94;443950;119;923457;-78
2023/01/04 01:31:53;;;;;;;9.88;9.18;;;;;;;6.59;77.31;101109.64;444028;117;922604;-78
2023/01/04 01:32:56;;;;;;;9.21;8.60;;;;;;;6.58;77.39;101105.23;444022;119;922423;-76
2023/01/04 01:34:01;;;;;;;10.08;9.38;;;;;;;6.58;77.30;101107.95;443656;119;930714;-78
2023/01/04 01:35:05;;;;;;;10.06;9.29;;;;;;;6.58;77.39;101105.23;443899;119;922988;-77
2023/01/04 01:36:09;;;;;;;9.64;8.89;;;;;;;6.59;77.35;101107.78;443955;119;922604;-77
2023/01/04 01:37:12;;;;;;;9.08;8.41;;;;;;;6.58;77.30;101097.11;444010;119;922669;-78
2023/01/04 01:38:15;;;;;;;9.86;9.16;;;;;;;6.59;77.33;101102.36;443942;119;923341;-76
2023/01/04 01:39:19;;;;;;;9.32;8.65;;;;;;;6.60;77.40;101104.05;443749;119;922525;-79
2023/01/04 01:40:22;;;;;;;9.75;9.05;;;;;;;6.60;77.34;101106.77;443957;119;922510;-79
2023/01/04 01:41:31;;;;;;;10.04;9.34;;;;;;;6.60;77.20;101100.50;443958;117;930530;-78
2023/01/04 01:42:34;;;;;;;9.66;8.96;;;;;;;6.59;77.25;101094.23;443857;119;922548;-78
2023/01/04 01:43:54;;;;;;;9.55;8.85;;;;;;;6.58;77.28;101097.11;443843;119;922960;-79
2023/01/04 01:45:09;;;;;;;9.50;8.78;;;;;;;6.58;77.30;101099.81;443895;119;922506;-77
2023/01/04 01:46:20;;;;;;;9.14;8.40;;;;;;;6.68;77.31;101086.89;481423;110;947196;-77
2023/01/04 01:47:26;;;;;;;9.78;9.06;;;;;;;6.57;77.32;101093.55;465463;114;922404;-79
2023/01/04 01:48:29;;;;;;;9.77;9.12;;;;;;;6.56;77.21;101089.16;465337;114;922819;-78
2023/01/04 01:49:37;;;;;;;9.28;8.56;;;;;;;6.56;77.18;101088.34;457672;116;922920;-78
2023/01/04 01:50:44;;;;;;;9.21;8.37;;;;;;;6.56;77.07;101091.05;457420;116;922530;-78
2023/01/04 01:51:47;;;;;;;9.43;8.67;;;;;;;6.56;77.15;101091.05;457267;115;922403;-77
2023/01/04 01:52:53;;;;;;;8.91;8.29;;;;;;;6.54;77.10;101091.21;457664;116;922409;-78
2023/01/04 01:53:59;;;;;;;9.84;9.10;;;;;;;6.55;77.06;101092.06;460966;114;922608;-77
2023/01/04 01:55:06;;;;;;;9.65;8.94;;;;;;;6.54;76.95;101090.36;465362;113;922465;-77
2023/01/04 01:56:10;;;;;;;8.58;7.94;;;;;;;6.53;76.94;101081.39;465535;114;923179;-79
2023/01/04 01:57:16;;;;;;;9.17;8.45;;;;;;;6.54;76.97;101093.08;465757;114;922557;-78
2023/01/04 01:58:26;;;;;;;9.47;8.86;;;;;;;6.55;77.06;101092.06;465227;114;922946;-77
2023/01/04 01:59:31;;;;;;;8.94;8.28;;;;;;;6.55;76.93;101089.34;465246;114;922498;-78
2023/01/04 02:00:35;;;;;;;8.48;7.88;;;;;;;6.55;76.90;101095.61;465525;114;922520;-78
2023/01/04 02:01:39;;;;;;;9.17;8.49;;;;;;;6.55;76.96;101089.34;465570;113;923073;-78
2023/01/04 02:02:46;;;;;;;8.61;8.01;;;;;;;6.56;76.90;101093.75;465667;114;922801;-79
2023/01/04 02:03:49;;;;;;;8.49;7.79;;;;;;;6.55;76.83;101092.06;464608;114;922537;-79
2023/01/04 02:04:54;;;;;;;8.90;8.30;;;;;;;6.55;76.82;101082.07;456875;116;922689;-79
2023/01/04 02:06:00;;;;;;;8.93;8.23;;;;;;;6.56;76.72;101082.92;465478;114;922666;-78
2023/01/04 02:07:05;;;;;;;8.19;7.64;;;;;;;6.55;76.69;101087.48;465515;113;922522;-76
2023/01/04 02:08:09;;;;;;;8.36;7.77;;;;;;;6.55;76.68;101086.64;465671;114;922458;-78
2023/01/04 02:09:13;;;;;;;8.42;7.82;;;;;;;6.54;76.53;101084.95;456051;116;922592;-77
2023/01/04 02:10:17;;;;;;;8.21;7.62;;;;;;;6.52;76.48;101079.70;465558;114;922586;-79
2023/01/04 02:11:20;;;;;;;9.89;9.03;;;;;;;6.52;76.55;101081.55;465676;113;922879;-78
2023/01/04 02:12:24;;;;;;;9.31;8.53;;;;;;;6.50;76.46;101083.63;465734;114;922990;-79
2023/01/04 02:14:52;;;;;;;8.38;7.73;;;;;;;6.48;76.42;101077.52;457456;116;922510;-76
2023/01/04 02:16:01;;;;;;;8.94;8.29;;;;;;;6.48;76.61;101074.81;457640;116;922539;-75
2023/01/04 02:17:20;;;;;;;9.42;8.60;;;;;;;6.48;76.59;101080.23;456821;116;922523;-79
2023/01/04 02:18:29;;;;;;;9.48;8.74;;;;;;;6.49;76.50;101080.06;457773;116;922507;-80
2023/01/04 02:20:09;;;;;;;8.74;8.11;;;;;;;6.48;76.54;101080.23;465745;114;922753;-78
2023/01/04 02:21:24;;;;;;;8.62;7.92;;;;;;;6.48;76.67;101077.52;465972;113;922183;-78
2023/01/04 02:22:49;;;;;;;8.39;7.79;;;;;;;6.49;76.59;101074.64;465263;114;922557;-80
2023/01/04 02:24:14;;;;;;;8.68;8.04;;;;;;;6.49;76.56;101079.22;463841;114;922868;-78
2023/01/04 02:25:50;;;;;;;8.44;7.74;;;;;;;6.59;76.57;101082.55;482567;110;947100;-76
2023/01/04 02:27:18;;;;;;;8.82;8.12;;;;;;;6.48;76.56;101075.66;467821;112;922497;-78
2023/01/04 02:28:41;;;;;;;8.63;8.03;;;;;;;6.48;76.56;101074.81;465540;114;922537;-78
2023/01/04 02:30:07;;;;;;;8.36;7.65;;;;;;;6.47;76.51;101082.09;457502;116;923098;-78
2023/01/04 02:31:29;;;;;;;8.14;7.54;;;;;;;6.45;76.42;101081.41;457462;115;922483;-79
2023/01/04 02:32:51;;;;;;;8.92;7.31;;;;;;;6.44;76.42;101079.75;453714;116;922752;-77
2023/01/04 02:34:20;;;;;;;8.44;7.74;;;;;;;6.53;76.52;101072.41;477942;110;947645;-77
2023/01/04 02:35:35;;;;;;;7.88;7.37;;;;;;;6.41;76.41;101080.08;446021;118;922747;-79
2023/01/04 02:36:47;;;;;;;8.72;8.08;;;;;;;6.41;76.42;101079.23;442489;119;923029;-78
2023/01/04 02:38:03;;;;;;;8.34;7.74;;;;;;;6.40;76.38;101081.09;452784;116;922556;-77
2023/01/04 02:39:17;;;;;;;8.29;7.68;;;;;;;6.50;76.32;101083.63;481952;107;922609;-77
2023/01/04 02:40:36;;;;;;;8.96;8.20;;;;;;;6.36;76.16;101087.05;466997;113;922561;-78
2023/01/04 02:41:51;;;;;;;8.43;7.83;;;;;;;6.36;76.16;101087.05;466578;113;922477;-78
2023/01/04 02:44:54;;;;;;;8.19;7.68;;;;;;;6.33;76.00;101081.99;467069;113;922521;-78
2023/01/04 02:46:07;;;;;;;8.66;7.96;;;;;;;6.28;76.03;101079.81;467009;113;922835;-78
2023/01/04 02:50:29;;;;;;;8.30;7.70;;;;;;;6.24;75.91;101078.45;466982;113;922734;-76
2023/01/04 02:51:20;;;;;;;7.97;7.31;;;;;;;6.15;75.80;101077.65;467048;113;922410;-78
2023/01/04 02:52:32;;;;;;;8.58;7.98;;;;;;;6.23;75.85;101072.19;493878;107;933379;-78
2023/01/04 02:53:38;;;;;;;7.76;7.16;;;;;;;6.10;75.90;101071.91;483142;109;922616;-78
2023/01/04 02:54:43;;;;;;;6.90;6.39;;;;;;;6.08;75.88;101068.53;475495;111;922542;-78
2023/01/04 02:55:53;;;;;;;6.99;6.49;;;;;;;6.06;75.81;101067.87;475459;109;922362;-78
2023/01/04 02:57:14;;;;;;;6.93;6.42;;;;;;;6.04;75.70;101074.47;470771;109;923229;-78
2023/01/04 02:58:30;;;;;;;8.31;7.59;;;;;;;5.99;75.71;101072.28;469526;113;922523;-78
2023/01/04 02:59:58;;;;;;;7.99;7.39;;;;;;;5.98;75.61;101077.86;465815;114;922777;-79
2023/01/04 03:06:14;;;;;;;6.90;6.40;;;;;;;5.81;75.78;101083.28;480074;110;922977;-76
2023/01/04 03:07:34;;;;;;;7.69;7.00;;;;;;;5.88;75.86;101090.74;477203;110;947179;-79
2023/01/04 03:08:52;;;;;;;7.46;6.92;;;;;;;5.73;75.94;101080.56;464987;112;922888;-79
2023/01/04 03:10:08;;;;;;;7.46;6.89;;;;;;;5.73;75.94;101080.56;465544;114;922540;-79
2023/01/04 03:12:39;;;;;;;7.62;7.02;;;;;;;5.67;75.80;101081.28;456182;116;922585;-78
2023/01/04 03:13:44;;;;;;;7.32;6.81;;;;;;;5.66;75.84;101081.44;452709;116;922632;-78
2023/01/04 03:14:51;;;;;;;7.61;6.99;;;;;;;5.65;75.83;101087.86;456162;116;922471;-78
2023/01/04 03:16:15;;;;;;;7.06;6.43;;;;;;;5.64;75.84;101081.61;455274;116;922793;-78
2023/01/04 03:17:22;;;;;;;7.45;6.85;;;;;;;5.64;76.07;101088.88;456006;116;922625;-79
2023/01/04 03:18:28;;;;;;;6.41;5.93;;;;;;;5.64;76.07;101088.88;456207;116;922993;-77
2023/01/04 03:20:58;;;;;;;6.40;5.91;;;;;;;5.63;75.92;101077.20;456134;116;922521;-77
2023/01/04 03:22:02;;;;;;;6.18;5.75;;;;;;;5.62;75.79;101086.36;456098;116;922500;-78
2023/01/04 03:36:01;;;;;;;6.29;5.84;;;;;;;5.53;75.85;101084.66;456201;116;922600;-77
2023/01/04 03:37:17;;;;;;;6.71;6.15;;;;;;;5.54;75.93;101090.91;455868;116;922820;-78
2023/01/04 03:49:33;;;;;;;5.94;5.47;;;;;;;5.45;75.63;101104.45;455303;114;923010;-79
2023/01/04 03:50:40;;;;;;;6.13;5.63;;;;;;;5.44;75.64;101110.88;456149;116;923058;-78
2023/01/04 03:51:45;;;;;;;6.01;5.46;;;;;;;5.43;75.74;101109.17;455481;116;922728;-77
2023/01/04 03:52:50;;;;;;;5.99;5.50;;;;;;;5.41;75.58;101100.38;456152;116;922524;-78
2023/01/04 03:53:57;;;;;;;6.12;5.45;;;;;;;5.40;75.46;101112.20;456058;114;923038;-78
2023/01/04 03:55:02;;;;;;;5.72;5.29;;;;;;;5.40;75.46;101112.20;456190;116;922948;-78
2023/01/04 03:56:09;;;;;;;6.24;5.74;;;;;;;5.40;75.38;101111.38;456179;116;922338;-77
2023/01/04 03:57:14;;;;;;;6.32;5.82;;;;;;;5.38;75.25;101111.55;456198;116;922574;-77
2023/01/04 03:58:19;;;;;;;5.88;5.44;;;;;;;5.37;75.23;101103.59;456227;116;922656;-79
2023/01/04 03:59:23;;;;;;;5.83;5.32;;;;;;;5.39;75.21;101109.69;455881;114;922415;-78
2023/01/04 04:00:27;;;;;;;5.88;5.43;;;;;;;5.38;75.20;101098.02;456287;116;922571;-78
2023/01/04 04:01:31;;;;;;;5.41;5.01;;;;;;;5.39;75.12;101105.13;456319;116;922540;-78
2023/01/04 04:02:34;;;;;;;5.92;5.39;;;;;;;5.38;75.02;101098.02;456263;116;922479;-78
2023/01/04 04:09:04;;;;;;;5.79;5.38;;;;;;;5.36;75.00;101104.59;455434;114;922879;-78
2023/01/04 04:10:08;;;;;;;5.40;4.98;;;;;;;5.35;74.87;101100.20;456319;116;922537;-77
2023/01/04 04:11:29;;;;;;;5.93;5.50;;;;;;;5.34;74.92;101106.64;456418;116;922973;-77
2023/01/04 04:12:32;;;;;;;5.21;4.81;;;;;;;5.34;74.89;101101.23;456233;116;922578;-77
2023/01/04 04:13:36;;;;;;;5.84;5.37;;;;;;;5.34;74.84;101098.53;455851;116;922513;-78
2023/01/04 04:14:39;;;;;;;5.17;4.78;;;;;;;5.33;74.85;101099.54;456392;116;922481;-77
2023/01/04 04:15:42;;;;;;;5.56;5.05;;;;;;;5.34;74.83;101099.38;456358;116;922388;-78
2023/01/04 04:16:45;;;;;;;5.70;5.29;;;;;;;5.35;74.80;101103.75;456361;116;922501;-77
2023/01/04 04:17:48;;;;;;;5.37;4.97;;;;;;;5.34;74.69;101104.79;456304;116;922456;-79
2023/01/04 04:18:52;;;;;;;4.85;4.48;;;;;;;5.34;74.64;101093.97;456006;114;922979;-78
2023/01/04 04:19:55;;;;;;;5.03;4.63;;;;;;;5.34;74.63;101093.12;456329;116;922409;-77
2023/01/04 04:20:58;;;;;;;5.12;4.64;;;;;;;5.33;74.76;101103.09;456216;116;922458;-78
2023/01/04 04:22:02;;;;;;;5.61;4.88;;;;;;;5.35;74.64;101092.94;456162;116;930884;-78
2023/01/04 04:23:05;;;;;;;5.08;4.67;;;;;;;5.35;74.53;101092.94;456283;116;923013;-77
2023/01/04 04:24:14;;;;;;;5.87;5.40;;;;;;;5.34;74.46;101099.38;456070;114;922616;-78
2023/01/04 04:25:17;;;;;;;5.18;4.78;;;;;;;5.34;74.38;101101.23;456096;116;923020;-78
2023/01/04 04:26:22;;;;;;;4.50;4.15;;;;;;;5.33;74.32;101099.54;456066;116;922597;-79
2023/01/04 04:27:25;;;;;;;6.03;5.51;;;;;;;5.33;74.39;101102.25;456117;116;930768;-79
2023/01/04 04:28:29;;;;;;;5.09;4.69;;;;;;;5.33;74.38;101099.54;456308;114;930472;-78
2023/01/04 04:29:32;;;;;;;5.02;4.59;;;;;;;5.32;74.25;101097.84;455912;116;922831;-79
2023/01/04 04:30:35;;;;;;;6.86;5.67;;;;;;;5.30;74.28;101103.41;456219;116;922997;-79
2023/01/04 04:31:39;;;;;;;4.59;4.22;;;;;;;5.30;74.31;101106.11;456121;116;923028;-78
2023/01/04 04:32:42;;;;;;;5.26;4.86;;;;;;;5.30;74.17;101106.11;456217;116;922582;-78
2023/01/04 04:33:45;;;;;;;5.53;5.05;;;;;;;5.29;74.21;101109.02;455955;116;923250;-78
2023/01/04 04:34:48;;;;;;;5.14;4.74;;;;;;;5.29;74.10;101109.02;456271;116;923058;-78
2023/01/04 04:35:53;;;;;;;4.76;4.36;;;;;;;5.27;73.99;101105.62;456252;116;922467;-78
2023/01/04 04:36:56;;;;;;;5.47;4.97;;;;;;;5.25;74.00;101104.92;456077;116;922457;-78
2023/01/04 04:37:59;;;;;;;4.69;4.29;;;;;;;5.25;74.03;101107.63;456297;116;922834;-78
2023/01/04 04:39:03;;;;;;;5.16;4.76;;;;;;;5.23;73.96;101107.82;456261;114;923208;-79
2023/01/04 04:41:37;;;;;;;5.63;5.20;;;;;;;5.24;74.05;101111.34;456099;116;922759;-77
2023/01/04 04:42:36;;;;;;;5.34;4.84;;;;;;;5.25;74.03;101113.88;456030;116;922908;-77
2023/01/04 04:43:39;;;;;;;5.54;5.14;;;;;;;5.24;74.01;101106.78;456071;116;922924;-78
2023/01/04 04:44:42;;;;;;;5.51;5.04;;;;;;;5.24;73.94;101114.89;456252;116;922528;-78
2023/01/04 04:45:46;;;;;;;4.78;4.42;;;;;;;5.23;73.98;101105.12;456263;116;922720;-78
2023/01/04 04:46:49;;;;;;;5.12;4.43;;;;;;;5.23;73.91;101110.52;456165;116;922506;-76
2023/01/04 04:47:52;;;;;;;4.93;4.53;;;;;;;5.23;73.93;101105.12;456203;116;922896;-79
2023/01/04 04:48:56;;;;;;;4.24;3.94;;;;;;;5.23;74.05;101109.67;456211;116;922651;-78
2023/01/04 04:49:59;;;;;;;5.66;4.90;;;;;;;5.23;73.97;101115.94;456171;116;922489;-77
2023/01/04 04:51:02;;;;;;;5.16;4.76;;;;;;;5.21;73.83;101109.83;456259;116;922655;-78
2023/01/04 04:52:05;;;;;;;4.57;4.23;;;;;;;5.22;73.76;101113.38;456208;116;923295;-78
2023/01/04 04:53:09;;;;;;;5.76;4.91;;;;;;;5.20;73.71;101115.40;456186;116;922900;-79
2023/01/04 04:54:15;;;;;;;5.51;4.92;;;;;;;5.19;73.80;101117.25;455536;114;922542;-79
2023/01/04 04:55:18;;;;;;;5.12;4.69;;;;;;;5.18;73.62;101112.04;453828;116;922533;-78
2023/01/04 04:56:21;;;;;;;5.11;4.49;;;;;;;5.17;73.53;101107.64;440170;120;922470;-79
2023/01/04 04:57:24;;;;;;;5.70;5.24;;;;;;;5.16;73.72;101108.64;448521;118;922470;-77
2023/01/04 04:58:27;;;;;;;5.77;5.29;;;;;;;5.16;73.63;101114.05;448785;116;922559;-78
2023/01/04 04:59:30;;;;;;;6.25;5.81;;;;;;;5.15;73.68;101110.50;456264;116;922889;-76
2023/01/04 05:00:33;;;;;;;6.29;5.79;;;;;;;5.15;73.53;101115.91;456291;116;922562;-78
2023/01/04 05:01:37;;;;;;;7.04;6.49;;;;;;;5.14;73.56;101111.50;456298;116;923090;-77
2023/01/04 05:02:40;;;;;;;6.41;5.91;;;;;;;5.14;73.64;101116.06;456131;116;922405;-78
2023/01/04 05:03:43;;;;;;;6.21;5.64;;;;;;;5.14;73.72;101116.06;455918;114;922491;-77
2023/01/04 05:04:47;;;;;;;6.43;5.84;;;;;;;5.14;73.73;101114.20;456167;116;930366;-77
2023/01/04 05:05:50;;;;;;;6.57;6.06;;;;;;;5.13;73.66;101112.51;456170;116;922529;-78
2023/01/04 05:06:53;;;;;;;5.89;5.36;;;;;;;5.13;73.64;101117.91;456129;116;922606;-77
2023/01/04 05:07:56;;;;;;;6.51;5.59;;;;;;;5.12;73.44;101121.66;453865;116;922544;-77
2023/01/04 05:08:59;;;;;;;6.20;5.67;;;;;;;5.11;73.38;101117.26;451812;116;923051;-78
2023/01/04 05:10:04;;;;;;;6.22;5.70;;;;;;;5.08;73.40;101116.72;452312;117;923050;-78
2023/01/04 05:11:09;;;;;;;5.69;5.16;;;;;;;5.05;73.33;101120.63;452272;117;922552;-77
2023/01/04 05:13:35;;;;;;;5.98;5.48;;;;;;;5.04;73.40;101118.92;451750;116;922566;-77
2023/01/04 05:14:38;;;;;;;6.21;5.68;;;;;;;5.02;73.38;101120.94;449078;118;922440;-78
2023/01/04 05:15:44;;;;;;;5.59;5.10;;;;;;;5.01;73.39;101122.82;449038;118;922540;-77
2023/01/04 05:16:47;;;;;;;6.43;5.94;;;;;;;5.01;73.45;101116.57;448897;118;922551;-77
2023/01/04 05:17:51;;;;;;;5.87;5.46;;;;;;;5.01;73.48;101119.27;449125;118;922818;-79
2023/01/04 05:18:54;;;;;;;5.66;5.26;;;;;;;5.01;73.53;101121.97;449995;117;922496;-77
2023/01/04 05:19:57;;;;;;;5.67;5.26;;;;;;;5.01;73.63;101120.12;452227;117;922567;-78
2023/01/04 05:21:01;;;;;;;5.85;5.37;;;;;;;5.01;73.63;101117.41;452305;117;922529;-76
2023/01/04 05:22:04;;;;;;;6.08;5.58;;;;;;;5.00;73.56;101117.58;452219;117;922485;-79
2023/01/04 05:23:09;;;;;;;6.33;5.79;;;;;;;5.00;73.41;101120.28;452235;117;922880;-78
2023/01/04 05:24:12;;;;;;;6.69;6.14;;;;;;;4.99;73.39;101121.28;449548;117;922546;-77
2023/01/04 05:25:15;;;;;;;5.91;5.39;;;;;;;4.98;73.40;101119.59;449130;118;922381;-77
2023/01/04 05:26:19;;;;;;;6.07;5.57;;;;;;;4.98;73.49;101124.98;448988;118;922508;-78
2023/01/04 05:27:22;;;;;;;6.49;5.99;;;;;;;4.98;73.44;101128.54;449003;118;930564;-78
2023/01/04 05:28:26;;;;;;;6.23;5.73;;;;;;;4.98;73.52;101122.28;449100;118;922555;-78
2023/01/04 05:30:55;;;;;;;5.94;5.38;;;;;;;4.95;73.49;101123.48;448913;118;922562;-78
2023/01/04 05:31:58;;;;;;;5.87;5.47;;;;;;;4.96;73.53;101129.73;449212;118;923009;-77
2023/01/04 05:33:02;;;;;;;5.66;5.17;;;;;;;4.95;73.46;101119.93;449457;118;922656;-78
2023/01/04 05:34:06;;;;;;;6.25;5.75;;;;;;;4.95;73.48;101128.03;449088;118;922494;-78
2023/01/04 05:35:09;;;;;;;5.94;5.45;;;;;;;4.91;73.39;101127.50;449586;118;922288;-76
2023/01/04 05:36:13;;;;;;;5.54;5.14;;;;;;;4.91;73.32;101124.80;449363;118;922781;-78
2023/01/04 05:37:16;;;;;;;5.87;5.37;;;;;;;4.90;73.40;101127.69;449420;118;922511;-76
2023/01/04 05:38:20;;;;;;;5.66;5.25;;;;;;;4.90;73.36;101127.69;449251;118;922552;-78
2023/01/04 05:39:24;;;;;;;5.36;4.96;;;;;;;4.90;73.44;101127.69;448986;116;922560;-79
2023/01/04 05:40:27;;;;;;;6.03;5.56;;;;;;;4.90;73.33;101125.83;449014;118;923158;-76
2023/01/04 05:42:52;;;;;;;5.56;5.06;;;;;;;4.90;73.33;101130.39;448854;118;922798;-79
2023/01/04 05:43:55;;;;;;;5.39;4.89;;;;;;;4.89;73.30;101125.99;448755;116;922547;-77
2023/01/04 05:44:58;;;;;;;6.56;5.95;;;;;;;4.88;73.23;101121.59;449019;118;922504;-78
2023/01/04 05:46:01;;;;;;;5.28;4.88;;;;;;;4.88;73.26;101127.84;449054;118;922527;-78
2023/01/04 05:47:05;;;;;;;6.74;5.66;;;;;;;4.86;73.22;101129.00;448906;118;922945;-78
2023/01/04 05:48:10;;;;;;;6.23;5.63;;;;;;;4.86;73.16;101129.85;447910;118;922478;-78
2023/01/04 05:49:13;;;;;;;6.25;5.75;;;;;;;4.84;73.10;101131.05;448374;116;922510;-77
2023/01/04 05:50:18;;;;;;;6.11;5.66;;;;;;;4.83;73.12;101126.64;448984;118;923476;-78
2023/01/04 05:51:21;;;;;;;5.98;5.48;;;;;;;4.80;73.09;101125.11;448788;118;930581;-79
2023/01/04 05:52:24;;;;;;;6.35;5.85;;;;;;;4.79;73.05;101130.69;448959;118;923381;-77
2023/01/04 05:53:27;;;;;;;6.87;6.18;;;;;;;4.78;73.06;101132.55;449034;118;922450;-77
2023/01/04 05:54:31;;;;;;;6.24;5.66;;;;;;;4.77;72.96;101135.41;451554;117;922428;-77
2023/01/04 05:55:34;;;;;;;6.49;5.93;;;;;;;4.77;72.92;101130.00;446485;117;922911;-77